Ilse, Colorado
Current Conditions -  °F | °C
As of 3:15 AM on Wednesday 26 Nov 2014 (Local Time) from K1V6 Reporting Station
Broken Clouds Broken Clouds  
Wind Chill: 32°   Ceiling: 1800
Heat Index: 32°   Visibility: 10mi
Dew Point: 28°   Wind: 0mph
Humidity: 87%   Direction: NA
Pressure: 30.18"   Gusts: NA
Location:  38.533°N, 105.389°W
Report Text: K1V6 261015Z AUTO 00000KT 10SM BKN018 00/M02 A3018 RMK AO2
Loading
Personal Weather Stations






























Interactive Weather Map New forecast layout! Learn more

10-Day Weather Forecast

Advertisements
Track Severe Weather on mobile